Time;durP1;ratioP1;P1;durP2;ratioP2;P2;SDS_P1;SDS_P2;PMS_P1;PMS_P2;Temp;Humidity;BMP_temperature;BMP_pressure;BME280_temperature;BME280_humidity;BME280_pressure;Samples;Min_cycle;Max_cycle;Signal;HPM_P1;HPM_P2
2023/09/06 00:00:53;;;;;;;15.50;7.00;;;;;;;14.46;100.00;101773.70;105722;1254;60533;-52
2023/09/06 00:03:21;;;;;;;13.30;6.90;;;;;;;14.40;100.00;101769.08;105722;1253;60574;-52
2023/09/06 00:05:49;;;;;;;12.30;6.50;;;;;;;14.33;100.00;101757.20;105870;1253;72537;-52
2023/09/06 00:08:17;;;;;;;16.40;6.20;;;;;;;14.26;100.00;101749.29;105666;1253;64905;-50
2023/09/06 00:10:45;;;;;;;11.80;6.20;;;;;;;14.21;100.00;101738.08;105834;1253;71549;-50
2023/09/06 00:13:13;;;;;;;18.80;6.40;;;;;;;14.15;100.00;101724.80;105629;1253;61837;-51
2023/09/06 00:15:40;;;;;;;8.90;6.80;;;;;;;14.08;100.00;101709.08;105719;1253;60332;-53
2023/09/06 00:18:08;;;;;;;12.00;6.90;;;;;;;14.02;100.00;101696.14;105683;1253;72581;-52
2023/09/06 00:20:36;;;;;;;21.00;7.00;;;;;;;13.98;100.00;101680.92;105687;1253;63287;-50
2023/09/06 00:23:06;;;;;;;16.70;6.70;;;;;;;13.94;100.00;101668.48;105687;1257;71343;-51
2023/09/06 00:25:33;;;;;;;13.50;6.60;;;;;;;13.89;100.00;101657.95;105753;1257;61628;-52
2023/09/06 00:28:06;;;;;;;15.80;7.30;;;;;;;13.85;100.00;101648.13;105681;1253;60588;-53
2023/09/06 00:30:35;;;;;;;16.30;7.10;;;;;;;13.82;100.00;101639.16;105680;1253;73790;-52
2023/09/06 00:33:05;;;;;;;12.40;7.20;;;;;;;13.80;100.00;101632.23;105673;1253;63104;-51
2023/09/06 00:35:33;;;;;;;9.70;7.10;;;;;;;13.78;100.00;101618.73;105711;1253;71715;-51
2023/09/06 00:38:01;;;;;;;15.10;6.90;;;;;;;13.77;100.00;101612.66;105675;1254;60470;-52
2023/09/06 00:40:29;;;;;;;11.00;6.60;;;;;;;13.75;100.00;101608.88;105665;1257;60436;-55
2023/09/06 00:43:01;;;;;;;16.00;6.80;;;;;;;13.71;100.00;101603.90;105733;1252;72703;-52
2023/09/06 00:45:45;;;;;;;16.70;8.10;;;;;;;13.67;100.00;101599.27;105696;1257;63393;-53
2023/09/06 00:48:31;;;;;;;17.00;6.60;;;;;;;13.65;100.00;101588.54;105854;1257;72634;-57
2023/09/06 00:50:59;;;;;;;;;;;;;;;13.62;100.00;101580.06;105687;1253;61628;-51
2023/09/06 00:53:27;;;;;;;12.70;6.70;;;;;;;13.61;100.00;101573.84;105708;1254;60403;-51
2023/09/06 00:55:55;;;;;;;13.10;7.30;;;;;;;13.61;100.00;101566.03;105647;1253;72594;-51
2023/09/06 00:58:23;;;;;;;15.40;7.20;;;;;;;13.60;100.00;101561.02;105696;1254;63107;-56
2023/09/06 01:00:51;;;;;;;13.90;8.00;;;;;;;13.58;100.00;101551.34;105649;1256;70502;-55
2023/09/06 01:03:19;;;;;;;11.90;7.20;;;;;;;13.56;100.00;101548.95;105686;1253;61630;-54
2023/09/06 01:06:20;;;;;;;19.40;7.60;;;;;;;13.55;100.00;101539.77;105688;1253;60442;-53
2023/09/06 01:09:06;;;;;;;17.70;7.50;;;;;;;13.53;100.00;101533.20;105844;1253;73832;-51
2023/09/06 01:11:37;;;;;;;10.10;7.00;;;;;;;13.50;100.00;101527.33;105645;1253;63688;-54
2023/09/06 01:14:05;;;;;;;10.20;6.50;;;;;;;13.49;100.00;101520.59;105736;1253;70294;-52
2023/09/06 01:16:41;;;;;;;13.10;7.30;;;;;;;13.47;100.00;101519.58;105751;1254;60454;-53
2023/09/06 01:19:11;;;;;;;12.10;6.70;;;;;;;13.44;100.00;101514.58;105721;1253;60534;-52
2023/09/06 01:21:47;;;;;;;14.90;6.80;;;;;;;13.44;100.00;101513.89;105688;1253;73858;-53
2023/09/06 01:24:16;;;;;;;9.20;6.20;;;;;;;13.43;100.00;101508.19;105851;1257;63193;-51
2023/09/06 01:26:43;;;;;;;15.50;7.00;;;;;;;13.41;100.00;101504.38;105707;1259;72659;-49
2023/09/06 01:29:12;;;;;;;9.00;5.90;;;;;;;13.39;100.00;101504.06;105811;1253;60671;-49
2023/09/06 01:31:40;;;;;;;9.00;6.30;;;;;;;13.37;100.00;101501.65;105739;1257;60501;-48
2023/09/06 01:34:09;;;;;;;7.40;5.90;;;;;;;13.37;100.00;101497.48;105654;1253;72635;-49
2023/09/06 01:36:36;;;;;;;16.10;6.80;;;;;;;13.37;100.00;101487.77;105626;1258;63169;-50
2023/09/06 01:39:08;;;;;;;12.10;6.80;;;;;;;13.36;100.00;101485.54;105669;1253;71096;-51
2023/09/06 01:41:36;;;;;;;14.60;7.20;;;;;;;13.34;100.00;101485.75;105730;1253;60457;-50
2023/09/06 01:44:05;;;;;;;12.30;6.90;;;;;;;13.29;100.00;101483.55;105700;1253;60377;-50
2023/09/06 01:46:33;;;;;;;15.60;7.00;;;;;;;13.24;100.00;101482.92;105829;1252;72539;-51
2023/09/06 01:49:02;;;;;;;16.00;7.00;;;;;;;13.19;100.00;101481.08;105693;1256;63287;-51
2023/09/06 01:51:31;;;;;;;8.90;6.80;;;;;;;13.15;100.00;101480.77;105711;1253;72636;-50
2023/09/06 01:54:01;;;;;;;12.10;6.10;;;;;;;13.11;100.00;101473.73;105682;1253;61677;-51
2023/09/06 01:56:28;;;;;;;11.80;6.50;;;;;;;13.08;100.00;101473.77;105746;1253;60316;-50
2023/09/06 01:58:56;;;;;;;11.10;6.90;;;;;;;13.07;100.00;101471.72;105644;1253;72560;-49
2023/09/06 02:01:24;;;;;;;16.20;7.20;;;;;;;13.05;100.00;101466.88;105687;1253;64552;-50
2023/09/06 02:03:53;;;;;;;11.10;7.20;;;;;;;13.04;100.00;101469.15;105716;1253;72649;-50
2023/09/06 02:06:22;;;;;;;11.30;7.00;;;;;;;13.01;100.00;101470.40;105667;1253;60603;-51
2023/09/06 02:08:49;;;;;;;10.90;7.30;;;;;;;12.98;100.00;101467.66;105728;1253;60355;-49
2023/09/06 02:11:18;;;;;;;20.10;7.40;;;;;;;12.97;100.00;101464.37;105709;1254;73828;-51
2023/09/06 02:13:47;;;;;;;12.30;6.90;;;;;;;12.96;100.00;101463.88;105700;1257;64386;-51
2023/09/06 02:16:16;;;;;;;10.90;7.20;;;;;;;12.95;100.00;101464.41;105727;1257;71430;-50
2023/09/06 02:18:44;;;;;;;10.60;7.00;;;;;;;12.92;100.00;101461.33;105770;1257;61620;-52
2023/09/06 02:21:13;;;;;;;10.50;7.30;;;;;;;12.89;100.00;101462.56;105681;1258;60423;-49
2023/09/06 02:23:40;;;;;;;16.90;7.70;;;;;;;12.86;100.00;101462.77;105741;1253;71922;-51
2023/09/06 02:26:08;;;;;;;12.40;7.20;;;;;;;12.83;100.00;101465.06;105831;1253;63250;-50
2023/09/06 02:28:36;;;;;;;14.30;7.20;;;;;;;12.79;100.00;101465.65;105664;1257;71422;-50
2023/09/06 02:31:04;;;;;;;12.20;7.40;;;;;;;12.75;100.00;101463.95;105711;1259;60463;-51
2023/09/06 02:33:32;;;;;;;11.30;7.40;;;;;;;12.71;100.00;101469.02;105700;1254;60502;-49
2023/09/06 02:35:59;;;;;;;12.30;7.00;;;;;;;12.68;100.00;101472.86;105658;1253;72593;-50
2023/09/06 02:38:27;;;;;;;14.00;7.00;;;;;;;12.67;100.00;101475.83;105724;1253;64645;-50
2023/09/06 02:40:55;;;;;;;9.20;6.40;;;;;;;12.68;100.00;101477.36;105663;1253;71336;-49
2023/09/06 02:43:23;;;;;;;11.80;6.70;;;;;;;12.67;100.00;101478.93;105726;1258;60533;-50
2023/09/06 02:45:53;;;;;;;11.10;6.10;;;;;;;12.67;100.00;101479.62;105708;1257;60834;-52
2023/09/06 02:48:21;;;;;;;12.00;7.20;;;;;;;12.65;100.00;101481.02;105675;1253;73587;-50
2023/09/06 02:50:49;;;;;;;13.70;8.00;;;;;;;12.62;100.00;101483.83;105743;1257;63139;-51
2023/09/06 02:53:20;;;;;;;11.60;7.20;;;;;;;12.59;100.00;101488.70;105689;1253;71356;-50
2023/09/06 02:55:53;;;;;;;14.50;7.10;;;;;;;12.57;100.00;101491.33;105780;1253;61658;-54
2023/09/06 02:58:23;;;;;;;14.60;7.10;;;;;;;12.54;100.00;101487.38;105740;1256;60377;-53
2023/09/06 03:00:57;;;;;;;11.20;7.20;;;;;;;12.52;100.00;101493.47;105727;1257;73769;-51
2023/09/06 03:03:30;;;;;;;9.30;7.10;;;;;;;12.50;100.00;101493.31;105847;1253;64011;-52
2023/09/06 03:06:03;;;;;;;9.20;7.10;;;;;;;12.48;100.00;101492.27;105734;1257;70872;-49
2023/09/06 03:08:32;;;;;;;14.60;7.40;;;;;;;12.44;100.00;101491.45;105728;1254;60698;-51
2023/09/06 03:11:00;;;;;;;11.00;7.10;;;;;;;12.41;100.00;101492.53;105706;1253;60500;-50
2023/09/06 03:13:30;;;;;;;13.50;7.00;;;;;;;12.39;100.00;101493.41;105733;1253;72618;-48
2023/09/06 03:15:59;;;;;;;13.10;7.20;;;;;;;12.38;100.00;101495.84;105678;1254;64471;-50
2023/09/06 03:18:29;;;;;;;15.70;7.10;;;;;;;12.39;100.00;101497.56;105732;1255;71624;-49
2023/09/06 03:21:04;;;;;;;10.60;7.00;;;;;;;12.37;100.00;101495.50;105736;1253;60465;-52
2023/09/06 03:23:32;;;;;;;14.70;8.60;;;;;;;12.36;100.00;101493.95;105709;1255;60540;-50
2023/09/06 03:26:02;;;;;;;12.40;7.00;;;;;;;12.35;100.00;101494.48;105723;1253;71629;-49
2023/09/06 03:28:33;;;;;;;13.40;7.30;;;;;;;12.36;100.00;101495.85;105701;1253;62981;-49
2023/09/06 03:31:01;;;;;;;19.00;7.50;;;;;;;12.38;100.00;101497.92;105699;1253;70945;-50
2023/09/06 03:33:30;;;;;;;15.20;7.70;;;;;;;12.38;100.00;101496.36;105597;1253;61703;-51
2023/09/06 03:35:58;;;;;;;13.10;7.00;;;;;;;12.40;100.00;101496.00;105671;1252;60534;-49
2023/09/06 03:38:26;;;;;;;10.50;6.80;;;;;;;12.42;100.00;101498.75;105712;1253;73874;-51
2023/09/06 03:41:02;;;;;;;13.00;7.20;;;;;;;12.41;100.00;101501.88;105767;1253;62945;-52
2023/09/06 03:43:32;;;;;;;11.50;7.10;;;;;;;12.41;100.00;101499.98;105726;1258;72628;-51
2023/09/06 03:46:07;;;;;;;18.10;7.90;;;;;;;12.44;100.00;101504.61;105677;1253;62351;-52
2023/09/06 03:48:35;;;;;;;10.70;6.70;;;;;;;12.47;100.00;101500.94;105730;1253;60521;-50
2023/09/06 03:51:04;;;;;;;8.90;6.50;;;;;;;12.53;100.00;101503.14;105746;1253;72621;-50
2023/09/06 03:53:34;;;;;;;9.10;7.10;;;;;;;12.57;100.00;101499.28;105601;1259;63290;-51
2023/09/06 03:56:02;;;;;;;10.40;7.20;;;;;;;12.63;100.00;101498.02;105615;1259;71425;-50
2023/09/06 03:58:34;;;;;;;11.90;7.40;;;;;;;12.69;100.00;101498.83;105627;1255;61632;-52
2023/09/06 04:01:04;;;;;;;8.50;6.80;;;;;;;12.74;100.00;101500.50;105646;1257;60353;-50
2023/09/06 04:03:34;;;;;;;11.80;7.60;;;;;;;12.79;100.00;101497.51;105665;1256;72636;-50
2023/09/06 04:06:03;;;;;;;15.00;7.40;;;;;;;12.86;100.00;101498.63;105682;1256;63268;-50
2023/09/06 04:08:33;;;;;;;13.70;6.40;;;;;;;12.94;100.00;101499.59;105676;1256;71614;-51
2023/09/06 04:11:02;;;;;;;11.40;7.00;;;;;;;13.04;100.00;101504.66;105607;1259;60557;-50
2023/09/06 04:13:30;;;;;;;12.30;6.40;;;;;;;13.17;100.00;101506.59;105529;1256;60350;-49
2023/09/06 04:15:58;;;;;;;18.30;7.00;;;;;;;13.28;100.00;101510.27;105665;1255;74355;-50
2023/09/06 04:18:28;;;;;;;10.60;6.40;;;;;;;13.37;100.00;101509.62;105685;1256;63853;-52
2023/09/06 04:20:59;;;;;;;14.90;6.60;;;;;;;13.45;100.00;101510.58;105673;1256;70822;-50
2023/09/06 04:23:28;;;;;;;17.30;6.60;;;;;;;13.54;100.00;101517.23;105619;1256;60522;-51
2023/09/06 04:25:58;;;;;;;15.40;7.10;;;;;;;13.62;100.00;101524.06;105619;1259;60459;-50
2023/09/06 04:28:28;;;;;;;10.80;6.80;;;;;;;13.70;100.00;101528.81;105680;1259;73059;-50
2023/09/06 04:30:58;;;;;;;11.90;7.40;;;;;;;13.80;100.00;101539.41;105597;1260;64411;-51
2023/09/06 05:03:55;;;;;;;13.00;6.60;;;;;;;15.35;100.00;101946.43;102623;1297;600689;-49
2023/09/06 05:06:25;;;;;;;11.80;6.40;;;;;;;15.42;100.00;101928.94;104751;1274;59154;-50
2023/09/06 05:08:53;;;;;;;10.00;6.40;;;;;;;15.43;100.00;101932.92;104831;1270;60923;-49
2023/09/06 05:11:23;;;;;;;11.00;6.00;;;;;;;15.44;100.00;101934.98;104834;1272;71041;-52
2023/09/06 05:13:52;;;;;;;11.20;5.80;;;;;;;15.45;100.00;101934.11;104868;1267;64512;-52
2023/09/06 05:16:21;;;;;;;21.70;6.60;;;;;;;15.46;100.00;101932.52;104880;1267;71560;-51
2023/09/06 05:18:49;;;;;;;18.70;6.30;;;;;;;15.43;100.00;101921.97;105004;1264;59698;-58
2023/09/06 05:21:20;;;;;;;7.00;6.20;;;;;;;15.39;100.00;101910.55;104966;1270;60107;-54
2023/09/06 05:23:48;;;;;;;13.10;6.90;;;;;;;15.38;100.00;101902.55;105102;1264;70898;-50
2023/09/06 05:26:16;;;;;;;11.90;6.80;;;;;;;15.38;100.00;101899.77;105116;1269;62601;-49
2023/09/06 05:28:46;;;;;;;13.40;6.50;;;;;;;15.41;100.00;101896.08;105163;1269;72023;-50
2023/09/06 05:31:16;;;;;;;10.20;6.20;;;;;;;15.48;100.00;101904.30;104993;1267;60696;-50
2023/09/06 05:33:44;;;;;;;9.40;5.90;;;;;;;15.57;100.00;101906.45;105117;1264;59999;-50
2023/09/06 05:36:14;;;;;;;8.60;5.70;;;;;;;15.64;100.00;101907.19;104850;1270;70941;-52
2023/09/06 05:38:42;;;;;;;19.00;6.10;;;;;;;15.69;100.00;101899.46;105011;1268;63381;-52
2023/09/06 05:41:10;;;;;;;7.60;5.60;;;;;;;15.72;100.00;101879.05;105082;1266;71708;-51
2023/09/06 05:43:40;;;;;;;13.50;6.00;;;;;;;15.79;100.00;101866.05;104858;1266;61629;-51
2023/09/06 05:46:09;;;;;;;9.20;5.30;;;;;;;15.88;100.00;101859.63;105588;1257;59541;-52
2023/09/06 05:48:57;;;;;;;5.90;5.30;;;;;;;15.99;100.00;101859.96;105630;1261;72064;-51
2023/09/06 05:51:26;;;;;;;10.50;6.10;;;;;;;16.06;100.00;101845.38;105608;1257;64487;-51
2023/09/06 05:53:54;;;;;;;13.30;6.30;;;;;;;16.15;100.00;101822.77;105595;1256;72672;-50
2023/09/06 05:56:23;;;;;;;7.90;5.70;;;;;;;16.23;100.00;101813.71;105595;1258;61933;-50
2023/09/06 05:58:51;;;;;;;16.00;5.90;;;;;;;16.32;100.00;101810.22;105683;1257;60021;-51
2023/09/06 06:01:19;;;;;;;8.10;5.70;;;;;;;16.44;100.00;101805.42;105644;1261;72372;-49
2023/09/06 06:05:25;;;;;;;9.40;5.60;;;;;;;16.62;100.00;101795.81;102690;1292;600889;-51
2023/09/06 06:07:53;;;;;;;8.40;5.70;;;;;;;16.71;100.00;101778.35;104810;1267;60858;-50
2023/09/06 06:10:21;;;;;;;9.40;5.70;;;;;;;16.83;100.00;101750.88;104871;1264;59267;-51
2023/09/06 06:12:48;;;;;;;8.00;6.10;;;;;;;16.95;100.00;101728.63;104914;1269;71106;-47
2023/09/06 06:15:17;;;;;;;16.20;5.80;;;;;;;17.06;100.00;101700.14;104897;1265;62525;-52
2023/09/06 06:17:44;;;;;;;8.20;6.10;;;;;;;17.18;100.00;101669.47;104939;1267;72701;-50
2023/09/06 06:20:13;;;;;;;8.30;5.50;;;;;;;17.30;100.00;101625.52;105000;1263;229941;-50
2023/09/06 06:22:41;;;;;;;15.20;6.40;;;;;;;17.42;100.00;101602.35;105192;1267;60198;-51
2023/09/06 06:25:10;;;;;;;18.40;6.30;;;;;;;17.52;100.00;101592.11;105171;1267;70966;-51
2023/09/06 06:27:38;;;;;;;9.70;5.90;;;;;;;17.64;100.00;101585.65;105276;1261;64349;-51
2023/09/06 06:30:07;;;;;;;7.50;5.30;;;;;;;17.76;100.00;101556.48;105303;1264;71415;-51
2023/09/06 06:32:35;;;;;;;11.80;5.90;;;;;;;17.87;100.00;101529.60;105274;1260;60263;-50
2023/09/06 06:35:06;;;;;;;12.30;5.90;;;;;;;17.97;100.00;101503.97;105259;1263;59609;-52
2023/09/06 06:37:34;;;;;;;13.80;6.10;;;;;;;18.10;100.00;101503.92;105267;1260;71749;-52
2023/09/06 06:40:05;;;;;;;9.00;5.50;;;;;;;18.26;100.00;101482.61;105279;1260;63126;-52
2023/09/06 06:42:33;;;;;;;13.80;5.90;;;;;;;18.38;100.00;101425.41;105299;1260;71378;-52
2023/09/06 06:45:04;;;;;;;17.80;6.80;;;;;;;18.51;100.00;101407.83;105266;1260;59618;-50
2023/09/06 06:47:32;;;;;;;14.20;6.70;;;;;;;18.65;100.00;101402.94;105285;1264;59545;-55
2023/09/06 06:50:03;;;;;;;17.60;6.60;;;;;;;18.78;100.00;101375.69;105176;1264;73093;-53
2023/09/06 06:52:31;;;;;;;15.30;5.50;;;;;;;18.91;100.00;101338.81;105345;1259;64577;-52
2023/09/06 06:54:59;;;;;;;24.20;6.90;;;;;;;19.05;100.00;101265.91;105309;1264;72728;-51
2023/09/06 06:57:27;;;;;;;12.50;6.60;;;;;;;19.20;100.00;101222.09;105295;1264;59749;-49
2023/09/06 06:59:55;;;;;;;17.40;6.30;;;;;;;19.35;100.00;101208.13;105243;1261;60441;-52
2023/09/06 07:02:22;;;;;;;15.70;5.70;;;;;;;19.54;100.00;101195.08;105163;1261;71844;-53
2023/09/06 07:04:50;;;;;;;18.00;5.50;;;;;;;19.72;100.00;101167.29;105213;1261;63375;-50
2023/09/06 07:07:19;;;;;;;6.30;4.80;;;;;;;19.92;100.00;101148.73;105239;1265;72654;-52
2023/09/06 07:09:47;;;;;;;6.30;4.70;;;;;;;20.08;100.00;101093.52;105152;1262;59737;-50
2023/09/06 07:12:14;;;;;;;8.60;5.10;;;;;;;20.23;100.00;101031.63;105146;1267;61236;-52
2023/09/06 07:14:42;;;;;;;16.80;5.70;;;;;;;20.39;100.00;101017.16;105240;1265;73010;-51
2023/09/06 07:17:10;;;;;;;18.80;6.10;;;;;;;20.56;100.00;101020.88;105176;1260;66654;-52
2023/09/06 07:19:38;;;;;;;12.00;5.70;;;;;;;20.71;100.00;101018.70;105143;1265;71419;-52
2023/09/06 07:22:06;;;;;;;12.10;5.40;;;;;;;20.85;100.00;101021.37;105229;1265;59753;-51
2023/09/06 07:24:33;;;;;;;16.30;6.30;;;;;;;20.93;100.00;101026.16;105089;1265;59743;-50
2023/09/06 07:27:02;;;;;;;12.60;5.80;;;;;;;21.06;100.00;101033.06;105300;1260;73156;-51
2023/09/06 07:29:30;;;;;;;17.90;6.00;;;;;;;21.21;100.00;101047.32;105195;1265;64704;-51
2023/09/06 07:31:58;;;;;;;15.00;5.40;;;;;;;21.35;100.00;101062.70;105271;1260;70613;-53
2023/09/06 07:34:25;;;;;;;17.10;5.50;;;;;;;21.51;100.00;101066.75;105213;1260;59733;-52
2023/09/06 07:36:53;;;;;;;8.50;4.10;;;;;;;21.69;100.00;101071.80;105198;1265;59528;-51
2023/09/06 07:39:21;;;;;;;9.30;3.90;;;;;;;21.85;100.00;101123.95;105187;1265;73111;-51
2023/09/06 07:41:53;;;;;;;9.70;4.50;;;;;;;22.00;100.00;101197.27;105276;1260;64481;-51
2023/09/06 07:44:21;;;;;;;8.20;3.40;;;;;;;22.20;100.00;101248.77;105244;1260;72015;-51
2023/09/06 07:46:50;;;;;;;8.90;3.40;;;;;;;22.37;100.00;101265.39;105230;1262;59682;-50
2023/09/06 07:49:18;;;;;;;4.60;3.30;;;;;;;22.52;100.00;101286.77;105244;1265;59735;-53
2023/09/06 07:51:46;;;;;;;5.10;3.60;;;;;;;22.65;95.22;101290.77;105249;1262;73046;-51
2023/09/06 07:54:15;;;;;;;5.70;3.40;;;;;;;22.80;88.78;101305.61;105208;1261;64482;-50
2023/09/06 07:56:47;;;;;;;6.10;3.00;;;;;;;22.95;83.65;101306.48;105244;1261;72030;-51
2023/09/06 07:59:16;;;;;;;4.60;2.20;;;;;;;23.17;77.29;101280.79;105542;1260;59845;-50
2023/09/06 08:01:45;;;;;;;3.20;2.30;;;;;;;23.43;70.13;101220.12;105521;1261;59647;-49
2023/09/06 08:04:13;;;;;;;5.60;2.30;;;;;;;23.62;65.33;101149.20;105605;1256;71761;-51
2023/09/06 08:06:42;;;;;;;8.60;2.80;;;;;;;23.73;64.36;101168.40;105540;1262;63123;-51
2023/09/06 08:09:11;;;;;;;9.10;3.40;;;;;;;23.90;60.92;101069.55;105535;1260;71436;-52
2023/09/06 08:11:39;;;;;;;16.70;3.10;;;;;;;24.02;60.30;101080.29;105519;1259;60024;-50
2023/09/06 08:14:07;;;;;;;2.40;2.20;;;;;;;24.12;59.79;101084.77;105508;1259;59548;-53
2023/09/06 08:16:35;;;;;;;8.20;2.60;;;;;;;24.19;60.50;101146.71;105518;1257;73017;-52
2023/09/06 08:19:03;;;;;;;3.90;2.70;;;;;;;24.29;59.42;101102.16;105533;1257;63123;-51
2023/09/06 08:21:31;;;;;;;7.60;2.30;;;;;;;24.42;58.93;101099.51;105533;1262;71412;-53
2023/09/06 08:24:00;;;;;;;8.20;2.10;;;;;;;24.53;57.97;101060.86;105491;1256;59635;-52
2023/09/06 08:26:28;;;;;;;6.90;1.90;;;;;;;24.58;57.12;101021.02;105535;1262;60967;-55
2023/09/06 08:28:56;;;;;;;3.70;2.00;;;;;;;24.68;56.67;101010.29;105553;1262;73112;-50
2023/09/06 08:31:24;;;;;;;10.30;2.30;;;;;;;24.81;56.73;101042.39;105535;1258;63141;-52
2023/09/06 08:33:52;;;;;;;1.90;1.80;;;;;;;24.87;54.69;100897.86;105524;1262;72636;-52
2023/09/06 08:36:20;;;;;;;2.10;1.90;;;;;;;24.82;53.26;100779.95;105235;1257;59804;-53
2023/09/06 08:38:48;;;;;;;2.00;1.80;;;;;;;24.88;52.85;100769.95;105557;1256;59665;-53
2023/09/06 08:41:16;;;;;;;4.20;2.60;;;;;;;25.09;54.37;100930.31;105503;1259;73057;-53
2023/09/06 08:43:44;;;;;;;6.30;3.80;;;;;;;25.37;51.58;100663.04;105540;1258;63240;-51
2023/09/06 08:46:21;;;;;;;7.40;3.00;;;;;;;25.46;51.35;100636.75;105503;1259;71097;-51
2023/09/06 08:48:49;;;;;;;12.50;4.60;;;;;;;25.45;51.14;100650.95;105534;1262;60273;-52
2023/09/06 08:51:17;;;;;;;20.10;3.40;;;;;;;25.55;50.38;100591.55;105334;1262;59554;-52
2023/09/06 08:53:45;;;;;;;3.90;2.80;;;;;;;25.62;49.60;100509.40;105546;1262;73113;-54
2023/09/06 08:56:16;;;;;;;2.60;2.00;;;;;;;25.72;49.24;100478.56;105344;1260;63114;-53
2023/09/06 08:58:44;;;;;;;2.10;2.00;;;;;;;25.69;48.92;100444.30;105517;1257;72640;-58
2023/09/06 09:01:12;;;;;;;2.80;1.90;;;;;;;25.64;47.09;100285.70;105507;1256;59612;-57
2023/09/06 09:03:40;;;;;;;2.80;2.30;;;;;;;25.56;47.17;100277.04;105708;1257;59566;-56
2023/09/06 09:06:09;;;;;;;5.90;2.00;;;;;;;25.60;47.20;100290.70;105683;1253;71756;-54
2023/09/06 09:08:37;;;;;;;4.50;1.80;;;;;;;25.74;48.41;100460.53;105723;1257;63227;-53
2023/09/06 09:11:16;;;;;;;3.10;1.90;;;;;;;25.99;46.75;100270.78;105700;1253;71409;-54
2023/09/06 09:13:45;;;;;;;6.60;2.00;;;;;;;26.06;46.25;100191.15;105741;1254;59665;-53
2023/09/06 09:16:14;;;;;;;3.50;1.90;;;;;;;26.16;46.95;100314.92;105910;1252;59757;-54
2023/09/06 09:18:43;;;;;;;4.60;2.00;;;;;;;26.28;46.22;100206.91;105750;1258;72736;-53
2023/09/06 09:21:12;;;;;;;4.10;2.20;;;;;;;26.18;46.23;100239.27;105697;1253;63221;-56
2023/09/06 09:23:55;;;;;;;3.00;2.00;;;;;;;26.09;46.92;100301.59;105731;1253;72661;-51
2023/09/06 09:26:23;;;;;;;2.80;2.00;;;;;;;26.14;46.53;100318.67;105704;1253;59673;-53
2023/09/06 09:28:51;;;;;;;5.70;2.10;;;;;;;26.28;46.47;100312.72;105754;1254;59544;-51
2023/09/06 09:31:19;;;;;;;2.30;1.80;;;;;;;26.33;45.64;100187.02;105695;1253;71747;-53
2023/09/06 09:33:50;;;;;;;3.20;2.00;;;;;;;26.26;45.22;100163.30;105698;1257;64335;-52
2023/09/06 09:36:18;;;;;;;4.40;2.50;;;;;;;26.24;46.74;100314.30;105691;1253;71614;-53
2023/09/06 09:38:50;;;;;;;2.60;2.00;;;;;;;26.33;46.01;100300.37;105689;1253;59746;-56
2023/09/06 09:41:18;;;;;;;15.20;2.50;;;;;;;26.37;45.77;100252.40;105685;1253;60174;-55
2023/09/06 09:43:45;;;;;;;4.80;2.00;;;;;;;26.31;46.47;100308.29;105791;1254;71741;-55
2023/09/06 09:46:27;;;;;;;4.90;2.00;;;;;;;26.37;46.05;100315.10;105651;1257;63143;-51
2023/09/06 09:48:59;;;;;;;3.60;2.10;;;;;;;26.38;45.55;100244.63;105707;1253;72639;-51
2023/09/06 09:51:27;;;;;;;2.50;2.10;;;;;;;26.31;45.05;100175.50;105752;1252;59628;-51
2023/09/06 09:53:55;;;;;;;1.90;1.80;;;;;;;26.24;45.04;100222.13;105729;1253;60024;-52
2023/09/06 09:56:23;;;;;;;8.40;2.20;;;;;;;26.14;44.71;100177.61;105732;1257;73124;-51
2023/09/06 09:58:51;;;;;;;14.60;2.20;;;;;;;25.89;46.27;100359.13;105677;1253;63113;-52
2023/09/06 10:01:19;;;;;;;5.30;2.50;;;;;;;25.86;46.27;100427.36;105703;1257;72663;-52
2023/09/06 10:03:46;;;;;;;3.10;2.10;;;;;;;25.98;46.18;100409.05;105720;1253;60576;-51
2023/09/06 10:06:16;;;;;;;3.60;2.10;;;;;;;26.10;45.67;100329.92;105665;1259;60145;-52
2023/09/06 10:08:45;;;;;;;10.30;2.10;;;;;;;26.15;45.72;100335.52;105723;1257;73058;-52
2023/09/06 10:11:14;;;;;;;5.20;2.60;;;;;;;26.26;45.66;100317.11;105697;1257;63893;-52
2023/09/06 10:13:41;;;;;;;6.30;4.80;;;;;;;26.47;45.70;100346.61;105672;1254;71416;-51
2023/09/06 10:16:09;;;;;;;3.40;3.10;;;;;;;26.49;44.43;100208.31;105678;1253;60550;-53
2023/09/06 11:04:08;;;;;;;3.50;2.40;;;;;;;26.17;39.74;99581.92;102649;1292;601051;-53
2023/09/06 11:06:55;;;;;;;9.10;2.60;;;;;;;26.24;40.59;99672.13;104816;1266;59385;-53
2023/09/06 11:09:25;;;;;;;17.20;3.30;;;;;;;26.44;40.20;99678.33;108696;1266;62429;-54
2023/09/06 11:11:53;;;;;;;2.60;2.40;;;;;;;26.53;39.04;99544.57;108668;1266;72171;-52
2023/09/06 11:14:27;;;;;;;2.90;2.30;;;;;;;26.46;39.63;99570.23;108754;1265;64542;-52
2023/09/06 11:16:55;;;;;;;6.50;2.40;;;;;;;26.61;38.55;99486.16;108538;1263;230590;-52
2023/09/06 11:19:30;;;;;;;2.80;2.60;;;;;;;26.61;38.36;99411.87;108788;1262;58789;-52
2023/09/06 11:22:07;;;;;;;2.30;2.10;;;;;;;26.59;37.87;99374.08;108975;1259;58742;-52
2023/09/06 11:24:35;;;;;;;5.90;2.80;;;;;;;26.60;38.91;99465.55;108991;1260;72231;-52
2023/09/06 11:27:20;;;;;;;2.90;2.70;;;;;;;26.74;40.33;99656.31;108990;1259;63733;-53
2023/09/06 11:29:56;;;;;;;2.80;2.60;;;;;;;26.89;39.70;99606.13;108991;1259;72647;-52
2023/09/06 11:32:24;;;;;;;6.10;3.00;;;;;;;27.00;38.07;99433.23;108990;1259;59205;-53
2023/09/06 11:34:51;;;;;;;9.00;2.90;;;;;;;26.94;39.68;99571.98;108980;1259;60015;-52
2023/09/06 11:37:19;;;;;;;4.40;2.70;;;;;;;27.17;40.16;99657.75;108946;1259;73086;-52
2023/09/06 11:39:47;;;;;;;4.20;2.50;;;;;;;27.49;38.29;99460.75;109021;1259;64618;-53
2023/09/06 11:42:15;;;;;;;4.30;2.60;;;;;;;27.76;37.66;99365.00;108990;1259;71060;-53
2023/09/06 11:44:50;;;;;;;4.90;2.70;;;;;;;27.84;38.42;99399.98;108955;1259;60045;-53
2023/09/06 11:47:18;;;;;;;5.50;2.40;;;;;;;27.93;38.52;99428.86;108980;1260;58789;-53
2023/09/06 11:49:46;;;;;;;7.00;2.70;;;;;;;27.89;37.67;99315.77;109432;1253;72091;-53
2023/09/06 11:52:18;;;;;;;5.20;2.60;;;;;;;27.57;39.19;99484.82;109633;1253;63250;-53
2023/09/06 11:54:52;;;;;;;7.10;3.10;;;;;;;27.27;39.61;99562.17;109605;1253;72657;-53
2023/09/06 11:57:23;;;;;;;7.80;2.70;;;;;;;26.96;39.38;99555.52;109614;1253;58801;-53
2023/09/06 12:03:07;;;;;;;5.70;2.90;;;;;;;26.61;39.77;99631.16;102958;1289;600267;-52
2023/09/06 12:05:47;;;;;;;5.90;3.00;;;;;;;26.40;41.52;99822.59;105161;1270;59949;-53
2023/09/06 12:08:21;;;;;;;3.40;2.80;;;;;;;26.48;40.22;99723.20;105069;1263;59305;-53
2023/09/06 12:10:59;;;;;;;5.40;3.00;;;;;;;26.47;40.30;99720.98;104887;1269;74643;-53
2023/09/06 12:13:27;;;;;;;9.20;3.00;;;;;;;26.39;40.35;99759.65;105138;1270;66888;-53
2023/09/06 12:15:56;;;;;;;3.20;2.60;;;;;;;26.21;40.82;99790.85;105037;1267;246833;-51
2023/09/06 12:18:25;;;;;;;3.30;2.60;;;;;;;26.03;41.57;99881.89;105245;1266;60569;-51
2023/09/06 12:20:53;;;;;;;3.10;2.80;;;;;;;25.98;42.37;99981.58;105243;1261;60862;-51
2023/09/06 12:23:21;;;;;;;8.00;3.20;;;;;;;25.99;40.93;99886.38;105238;1261;70956;-52
2023/09/06 12:25:49;;;;;;;4.90;3.10;;;;;;;25.91;41.37;99911.80;105279;1267;63080;-51
2023/09/06 12:28:17;;;;;;;5.00;3.30;;;;;;;25.76;41.17;99900.27;105225;1266;72835;-52
2023/09/06 12:30:45;;;;;;;6.00;3.40;;;;;;;25.70;40.76;99855.14;105205;1261;59720;-51
2023/09/06 12:33:14;;;;;;;4.60;3.40;;;;;;;25.66;40.85;99863.55;105215;1261;60693;-51
2023/09/06 12:35:43;;;;;;;8.80;4.00;;;;;;;25.71;41.31;99915.56;105259;1260;72481;-52
2023/09/06 12:38:11;;;;;;;4.60;3.70;;;;;;;25.79;41.00;99903.39;105201;1266;63108;-53
2023/09/06 12:40:39;;;;;;;6.00;3.80;;;;;;;25.86;40.99;99880.16;105259;1263;72674;-53